Time,TemperatureF,DewpointF,PressureIn,WindDirection,WindDirectionDegrees,WindSpeedMPH,WindSpeedGustMPH,Humidity,HourlyPrecipIn,Conditions,Clouds,dailyrainin,SolarRadiationWatts/m^2,SoftwareType,DateUTC
2013-05-15 00:02:00,51.6,46.6,29.94,NNE,22,0.0,0.0,83,0.00,CLR,,0.00,0.0,WeatherDisplay:10.37,2013-05-14 22:02:00,
2013-05-15 00:07:00,51.6,46.6,29.94,NNE,22,0.0,0.0,83,0.00,CLR,,0.00,0.0,WeatherDisplay:10.37,2013-05-14 22:07:00,
2013-05-15 00:12:00,51.6,46.6,29.94,NNE,22,0.0,0.0,83,0.00,CLR,,0.00,0.0,WeatherDisplay:10.37,2013-05-14 22:12:00,
2013-05-15 00:17:00,51.4,46.4,29.94,NNE,22,0.0,0.0,83,0.00,CLR,,0.00,0.0,WeatherDisplay:10.37,2013-05-14 22:17:00,
2013-05-15 00:22:00,51.3,46.3,29.94,NNE,22,0.0,0.0,83,0.00,CLR,,0.00,0.0,WeatherDisplay:10.37,2013-05-14 22:22:00,
2013-05-15 00:27:00,51.1,45.8,29.94,NNE,22,0.0,0.0,82,0.00,CLR,,0.00,0.0,WeatherDisplay:10.37,2013-05-14 22:27:00,
2013-05-15 00:32:00,50.9,45.9,29.94,NNE,22,0.0,0.0,83,0.00,CLR,,0.00,0.0,WeatherDisplay:10.37,2013-05-14 22:32:00,
2013-05-15 00:37:00,50.7,45.7,29.94,NNW,338,1.2,0.0,83,0.00,CLR,,0.00,0.0,WeatherDisplay:10.37,2013-05-14 22:37:00,
2013-05-15 00:42:00,50.5,45.6,29.94,NNW,338,0.0,0.0,83,0.00,CLR,,0.00,0.0,WeatherDisplay:10.37,2013-05-14 22:42:00,
2013-05-15 00:47:00,50.4,45.4,29.94,NNW,338,0.0,0.0,83,0.00,CLR,,0.00,0.0,WeatherDisplay:10.37,2013-05-14 22:47:00,
2013-05-15 00:52:00,50.2,45.2,29.94,NNW,338,0.0,0.0,83,0.00,CLR,,0.00,0.0,WeatherDisplay:10.37,2013-05-14 22:52:00,
2013-05-15 00:57:00,50.0,45.0,29.94,NNW,338,0.0,0.0,83,0.00,CLR,,0.00,0.0,WeatherDisplay:10.37,2013-05-14 22:57:00,
2013-05-15 01:02:00,49.8,45.2,29.94,NNW,338,0.0,0.0,84,0.00,CLR,,0.00,0.0,WeatherDisplay:10.37,2013-05-14 23:02:00,
2013-05-15 01:07:00,49.6,45.0,29.94,NNW,338,0.0,0.0,84,0.00,CLR,,0.00,0.0,WeatherDisplay:10.37,2013-05-14 23:07:00,
2013-05-15 01:12:00,49.5,44.8,29.94,NNW,338,0.0,0.0,84,0.00,CLR,,0.00,0.0,WeatherDisplay:10.37,2013-05-14 23:12:00,
2013-05-15 01:17:00,49.3,44.6,29.94,NNW,338,1.2,1.2,84,0.00,CLR,,0.00,0.0,WeatherDisplay:10.37,2013-05-14 23:17:00,
2013-05-15 01:22:00,49.1,44.8,29.94,NNW,338,0.0,0.0,85,0.00,CLR,,0.00,0.0,WeatherDisplay:10.37,2013-05-14 23:22:00,
2013-05-15 01:27:00,49.1,44.8,29.94,NNW,338,0.0,0.0,85,0.00,CLR,,0.00,0.0,WeatherDisplay:10.37,2013-05-14 23:27:00,
2013-05-15 01:32:00,48.9,44.6,29.94,NNW,338,0.0,0.0,85,0.00,CLR,,0.00,0.0,WeatherDisplay:10.37,2013-05-14 23:32:00,
2013-05-15 01:37:00,48.9,44.6,29.94,NNE,22,0.0,0.0,85,0.00,CLR,,0.00,0.0,WeatherDisplay:10.37,2013-05-14 23:37:00,
2013-05-15 01:42:00,48.7,44.7,29.94,NNE,22,0.0,0.0,86,0.00,CLR,,0.00,0.0,WeatherDisplay:10.37,2013-05-14 23:42:00,
2013-05-15 01:47:00,48.7,44.7,29.94,North,0,0.0,0.0,86,0.00,CLR,,0.00,0.0,WeatherDisplay:10.37,2013-05-14 23:47:00,
2013-05-15 01:52:00,48.7,44.7,29.94,North,0,0.0,0.0,86,0.00,CLR,,0.00,0.0,WeatherDisplay:10.37,2013-05-14 23:52:00,
2013-05-15 01:57:00,48.7,45.0,29.94,North,0,0.0,0.0,87,0.00,CLR,,0.00,0.0,WeatherDisplay:10.37,2013-05-14 23:57:00,
2013-05-15 02:02:00,48.6,44.9,29.91,North,0,0.0,0.0,87,0.00,CLR,,0.00,0.0,WeatherDisplay:10.37,2013-05-15 00:02:00,
2013-05-15 02:07:00,48.6,44.9,29.91,North,0,0.0,0.0,87,0.00,CLR,,0.00,0.0,WeatherDisplay:10.37,2013-05-15 00:07:00,
2013-05-15 02:12:00,48.6,44.9,29.91,North,0,0.0,0.0,87,0.00,CLR,,0.00,0.0,WeatherDisplay:10.37,2013-05-15 00:12:00,
2013-05-15 02:17:00,48.4,44.7,29.94,North,0,0.0,0.0,87,0.00,CLR,,0.00,0.0,WeatherDisplay:10.37,2013-05-15 00:17:00,
2013-05-15 02:22:00,48.2,44.5,29.94,North,0,0.0,0.0,87,0.00,CLR,,0.00,0.0,WeatherDisplay:10.37,2013-05-15 00:22:00,
2013-05-15 02:27:00,48.2,44.5,29.94,North,0,0.0,0.0,87,0.00,CLR,,0.00,0.0,WeatherDisplay:10.37,2013-05-15 00:27:00,
2013-05-15 02:32:00,48.0,44.6,29.94,North,0,0.0,0.0,88,0.00,CLR,,0.00,0.0,WeatherDisplay:10.37,2013-05-15 00:32:00,
2013-05-15 02:37:00,48.0,44.6,29.94,North,0,0.0,0.0,88,0.00,CLR,,0.00,0.0,WeatherDisplay:10.37,2013-05-15 00:37:00,
2013-05-15 02:42:00,47.8,44.5,29.94,North,0,0.0,0.0,88,0.00,CLR,,0.00,0.0,WeatherDisplay:10.37,2013-05-15 00:42:00,
2013-05-15 02:47:00,47.8,44.5,29.94,North,0,0.0,0.0,88,0.00,CLR,,0.00,0.0,WeatherDisplay:10.37,2013-05-15 00:47:00,
2013-05-15 02:52:00,47.8,44.5,29.94,North,0,0.0,0.0,88,0.00,CLR,,0.00,0.0,WeatherDisplay:10.37,2013-05-15 00:52:00,
2013-05-15 02:57:00,47.7,44.3,29.94,North,0,0.0,0.0,88,0.00,CLR,,0.00,0.0,WeatherDisplay:10.37,2013-05-15 00:57:00,
2013-05-15 03:02:00,47.7,44.3,29.94,North,0,0.0,0.0,88,0.00,CLR,,0.00,0.0,WeatherDisplay:10.37,2013-05-15 01:02:00,
2013-05-15 03:07:00,47.5,44.1,29.94,NNW,338,0.0,0.0,88,0.00,CLR,,0.00,0.0,WeatherDisplay:10.37,2013-05-15 01:07:00,
2013-05-15 03:12:00,47.5,44.1,29.94,NNW,338,0.0,0.0,88,0.00,CLR,,0.00,0.0,WeatherDisplay:10.37,2013-05-15 01:12:00,
2013-05-15 03:17:00,47.5,44.4,29.94,NNW,338,0.0,0.0,89,0.00,CLR,,0.00,0.0,WeatherDisplay:10.37,2013-05-15 01:17:00,
2013-05-15 03:22:00,47.5,44.4,29.94,North,0,0.0,0.0,89,0.00,CLR,,0.00,0.0,WeatherDisplay:10.37,2013-05-15 01:22:00,
2013-05-15 03:27:00,47.5,44.4,29.94,NNW,338,0.0,0.0,89,0.00,CLR,,0.00,0.0,WeatherDisplay:10.37,2013-05-15 01:27:00,
2013-05-15 03:32:00,47.5,44.4,29.91,NNE,22,1.2,0.0,89,0.00,CLR,,0.00,0.0,WeatherDisplay:10.37,2013-05-15 01:32:00,
2013-05-15 03:37:00,47.5,44.7,29.91,NNE,22,0.0,0.0,90,0.00,CLR,,0.00,0.0,WeatherDisplay:10.37,2013-05-15 01:37:00,
2013-05-15 03:42:00,47.7,45.2,29.91,NNE,22,0.0,0.0,91,0.00,CLR,,0.00,0.0,WeatherDisplay:10.37,2013-05-15 01:42:00,
2013-05-15 03:47:00,47.7,45.2,29.94,NNE,22,0.0,0.0,91,0.00,CLR,,0.00,0.0,WeatherDisplay:10.37,2013-05-15 01:47:00,
2013-05-15 03:52:00,47.7,45.2,29.94,NNE,22,0.0,0.0,91,0.00,CLR,,0.00,0.0,WeatherDisplay:10.37,2013-05-15 01:52:00,
2013-05-15 03:57:00,47.8,45.3,29.94,NNE,22,0.0,0.0,91,0.00,CLR,,0.00,0.0,WeatherDisplay:10.37,2013-05-15 01:57:00,
2013-05-15 04:02:00,47.8,45.3,29.94,NNE,22,0.0,0.0,91,0.00,CLR,,0.00,0.0,WeatherDisplay:10.37,2013-05-15 02:02:00,
2013-05-15 04:07:00,48.0,45.8,29.94,NNE,22,0.0,0.0,92,0.00,CLR,,0.00,0.0,WeatherDisplay:10.37,2013-05-15 02:07:00,
2013-05-15 04:12:00,48.0,45.8,29.94,NNE,22,0.0,0.0,92,0.00,CLR,,0.00,0.0,WeatherDisplay:10.37,2013-05-15 02:12:00,
2013-05-15 04:17:00,48.2,46.0,29.94,NNE,22,0.0,0.0,92,0.00,CLR,,0.00,0.0,WeatherDisplay:10.37,2013-05-15 02:17:00,
2013-05-15 04:22:00,48.4,46.2,29.94,NNE,22,0.0,0.0,92,0.00,CLR,,0.00,0.0,WeatherDisplay:10.37,2013-05-15 02:22:00,
2013-05-15 04:27:00,48.6,46.3,29.94,NNW,338,0.0,0.0,92,0.00,CLR,,0.00,0.0,WeatherDisplay:10.37,2013-05-15 02:27:00,
2013-05-15 04:32:00,48.6,46.3,29.94,NNE,22,1.2,0.0,92,0.00,CLR,,0.00,0.0,WeatherDisplay:10.37,2013-05-15 02:32:00,
2013-05-15 04:37:00,48.9,47.0,29.94,NNW,338,1.2,0.0,93,0.00,CLR,,0.00,0.0,WeatherDisplay:10.37,2013-05-15 02:37:00,
2013-05-15 04:42:00,49.1,47.2,29.94,North,0,2.3,2.3,93,0.00,CLR,,0.00,0.0,WeatherDisplay:10.37,2013-05-15 02:42:00,
2013-05-15 04:47:00,49.6,48.0,29.94,North,0,2.3,2.3,94,0.00,CLR,,0.00,0.0,WeatherDisplay:10.37,2013-05-15 02:47:00,
2013-05-15 04:52:00,50.0,48.3,29.94,NNW,338,3.5,3.5,94,0.00,CLR,,0.00,0.0,WeatherDisplay:10.37,2013-05-15 02:52:00,
2013-05-15 04:57:00,50.5,48.9,29.94,NNW,338,3.1,3.1,94,0.00,CLR,,0.00,0.0,WeatherDisplay:10.37,2013-05-15 02:57:00,
2013-05-15 05:02:00,50.7,48.8,29.91,NNW,338,2.3,2.3,93,0.00,OVC,,0.00,0.0,WeatherDisplay:10.37,2013-05-15 03:02:00,
2013-05-15 05:07:00,51.1,48.8,29.91,NNE,22,2.4,2.4,92,0.00,OVC,,0.00,0.0,WeatherDisplay:10.37,2013-05-15 03:07:00,
2013-05-15 05:12:00,51.3,48.7,29.91,ENE,68,3.5,3.5,91,0.00,OVC,,0.00,0.0,WeatherDisplay:10.37,2013-05-15 03:12:00,
2013-05-15 05:17:00,51.3,48.4,29.94,NNE,22,2.3,2.3,90,0.00,OVC,,0.00,0.0,WeatherDisplay:10.37,2013-05-15 03:17:00,
2013-05-15 05:22:00,51.4,48.3,29.94,NNE,22,3.5,3.5,89,0.00,OVC,,0.00,1.5,WeatherDisplay:10.37,2013-05-15 03:22:00,
2013-05-15 05:27:00,51.6,48.2,29.94,NNE,22,2.3,2.3,88,0.00,OVC,,0.00,3.8,WeatherDisplay:10.37,2013-05-15 03:27:00,
2013-05-15 05:32:00,51.6,47.9,29.91,North,0,3.5,3.5,87,0.00,OVC,,0.00,6.1,WeatherDisplay:10.37,2013-05-15 03:32:00,
2013-05-15 05:37:00,51.6,47.9,29.91,NNE,22,2.3,2.3,87,0.00,OVC,,0.00,8.4,WeatherDisplay:10.37,2013-05-15 03:37:00,
2013-05-15 05:42:00,51.4,47.4,29.91,NNE,22,2.3,2.3,86,0.00,OVC,,0.00,10.7,WeatherDisplay:10.37,2013-05-15 03:42:00,
2013-05-15 05:47:00,51.4,47.4,29.94,NE,45,3.5,3.5,86,0.00,OVC,,0.00,13.2,WeatherDisplay:10.37,2013-05-15 03:47:00,
2013-05-15 05:52:00,51.4,47.4,29.94,ENE,68,3.5,3.5,86,0.00,OVC,,0.00,15.5,WeatherDisplay:10.37,2013-05-15 03:52:00,
2013-05-15 05:57:00,51.3,47.2,29.94,NNW,338,2.4,2.4,86,0.00,OVC,,0.00,18.0,WeatherDisplay:10.37,2013-05-15 03:57:00,
2013-05-15 06:01:00,51.3,47.2,29.94,East,90,1.4,1.4,86,0.00,OVC,,0.00,20.0,WeatherDisplay:10.37,2013-05-15 04:01:00,
2013-05-15 06:06:00,51.3,47.2,29.94,NNE,22,2.4,2.4,86,0.00,OVC,,0.00,22.6,WeatherDisplay:10.37,2013-05-15 04:06:00,
2013-05-15 06:11:00,51.3,47.2,29.94,NE,45,2.9,2.9,86,0.00,OVC,,0.00,25.1,WeatherDisplay:10.37,2013-05-15 04:11:00,
2013-05-15 06:16:00,51.4,47.4,29.94,NNE,22,2.3,2.3,86,0.00,OVC,,0.00,27.7,WeatherDisplay:10.37,2013-05-15 04:16:00,
2013-05-15 06:21:00,51.4,47.4,29.94,NNW,338,2.3,2.3,86,0.00,OVC,,0.00,30.2,WeatherDisplay:10.37,2013-05-15 04:21:00,
2013-05-15 06:26:00,51.6,47.6,29.94,NNW,338,2.0,0.0,86,0.00,OVC,,0.00,32.8,WeatherDisplay:10.37,2013-05-15 04:26:00,
2013-05-15 06:31:00,51.8,47.7,29.97,NNW,338,1.2,1.2,86,0.00,OVC,,0.00,35.5,WeatherDisplay:10.37,2013-05-15 04:31:00,
2013-05-15 06:37:00,52.2,48.1,29.97,North,0,2.3,0.0,86,0.00,OVC,,0.00,38.1,WeatherDisplay:10.37,2013-05-15 04:37:00,
2013-05-15 06:42:00,52.5,48.5,29.97,NNW,338,4.6,4.6,86,0.00,OVC,,0.00,40.8,WeatherDisplay:10.37,2013-05-15 04:42:00,
2013-05-15 06:47:00,52.9,48.5,29.94,ENE,68,2.3,2.3,85,0.00,OVC,,0.00,43.6,WeatherDisplay:10.37,2013-05-15 04:47:00,
2013-05-15 06:52:00,53.2,48.8,29.94,North,0,4.9,4.9,85,0.00,OVC,,0.00,46.2,WeatherDisplay:10.37,2013-05-15 04:52:00,
2013-05-15 06:57:00,54.0,49.2,29.94,NNE,22,3.6,3.6,84,0.00,OVC,,0.00,49.0,WeatherDisplay:10.37,2013-05-15 04:57:00,
2013-05-15 07:02:00,54.5,49.4,29.97,ESE,112,4.6,4.6,83,0.00,OVC,,0.00,51.8,WeatherDisplay:10.37,2013-05-15 05:02:00,
2013-05-15 07:07:00,55.2,49.8,29.97,East,90,3.5,3.5,82,0.00,OVC,,0.00,54.5,WeatherDisplay:10.37,2013-05-15 05:07:00,
2013-05-15 07:12:00,55.8,50.0,29.97,NE,45,3.5,3.5,81,0.00,OVC,,0.00,57.3,WeatherDisplay:10.37,2013-05-15 05:12:00,
2013-05-15 07:17:00,56.1,50.0,29.94,NNW,338,2.3,2.3,80,0.00,OVC,,0.00,60.1,WeatherDisplay:10.37,2013-05-15 05:17:00,
2013-05-15 07:22:00,56.5,50.0,29.94,East,90,4.6,4.6,79,0.00,OVC,,0.00,62.9,WeatherDisplay:10.37,2013-05-15 05:22:00,
2013-05-15 07:27:00,57.0,50.2,29.94,ENE,68,2.9,2.9,78,0.00,OVC,,0.00,65.7,WeatherDisplay:10.37,2013-05-15 05:27:00,
2013-05-15 07:32:00,57.4,50.2,29.97,SSE,158,2.3,2.3,77,0.00,OVC,,0.00,68.5,WeatherDisplay:10.37,2013-05-15 05:32:00,
2013-05-15 07:37:00,57.7,50.6,29.97,ESE,112,3.3,3.3,77,0.00,OVC,,0.00,71.3,WeatherDisplay:10.37,2013-05-15 05:37:00,
2013-05-15 07:42:00,58.1,50.6,29.97,ESE,112,2.6,2.6,76,0.00,OVC,,0.00,74.1,WeatherDisplay:10.37,2013-05-15 05:42:00,
2013-05-15 07:47:00,58.1,49.9,29.94,ESE,112,3.1,3.3,74,0.00,OVC,,0.00,77.1,WeatherDisplay:10.37,2013-05-15 05:47:00,
2013-05-15 07:52:00,58.3,50.0,29.94,South,180,4.6,4.6,74,0.00,OVC,,0.00,79.9,WeatherDisplay:10.37,2013-05-15 05:52:00,
2013-05-15 07:57:00,58.3,50.0,29.94,NNE,22,1.6,0.0,74,0.00,OVC,,0.00,82.7,WeatherDisplay:10.37,2013-05-15 05:57:00,
2013-05-15 08:02:00,58.5,50.6,29.94,ESE,112,5.8,5.8,75,0.00,OVC,,0.00,85.5,WeatherDisplay:10.37,2013-05-15 06:02:00,
2013-05-15 08:07:00,59.2,50.2,29.94,SSW,202,5.8,5.8,72,0.00,OVC,,0.00,88.3,WeatherDisplay:10.37,2013-05-15 06:07:00,
2013-05-15 08:12:00,59.4,50.0,29.94,ESE,112,9.2,9.2,71,0.00,OVC,,0.00,91.1,WeatherDisplay:10.37,2013-05-15 06:12:00,
2013-05-15 08:17:00,59.7,50.3,29.94,ESE,112,9.2,9.2,71,0.00,OVC,,0.00,93.9,WeatherDisplay:10.37,2013-05-15 06:17:00,
2013-05-15 08:22:00,59.9,50.5,29.94,ESE,112,4.6,4.6,71,0.00,OVC,,0.00,97.3,WeatherDisplay:10.37,2013-05-15 06:22:00,
2013-05-15 08:27:00,60.3,50.4,29.94,NNE,22,8.1,8.1,70,0.00,OVC,,0.00,100.2,WeatherDisplay:10.37,2013-05-15 06:27:00,
2013-05-15 08:32:00,60.6,51.2,29.94,SSW,202,3.6,3.6,71,0.00,OVC,,0.00,103.0,WeatherDisplay:10.37,2013-05-15 06:32:00,
2013-05-15 08:37:00,60.8,51.0,29.94,SE,135,4.6,4.6,70,0.00,OVC,,0.00,105.6,WeatherDisplay:10.37,2013-05-15 06:37:00,
2013-05-15 08:42:00,61.0,50.7,29.94,ESE,112,3.5,3.5,69,0.00,OVC,,0.00,108.4,WeatherDisplay:10.37,2013-05-15 06:42:00,
2013-05-15 08:47:00,61.3,51.1,29.94,SSE,158,6.9,6.9,69,0.00,OVC,,0.00,111.0,WeatherDisplay:10.37,2013-05-15 06:47:00,
2013-05-15 08:52:00,61.5,50.9,29.94,SSE,158,4.6,4.6,68,0.00,OVC,,0.00,113.8,WeatherDisplay:10.37,2013-05-15 06:52:00,
2013-05-15 08:57:00,61.7,51.4,29.94,WSW,248,3.5,3.5,69,0.00,OVC,,0.00,116.5,WeatherDisplay:10.37,2013-05-15 06:57:00,
2013-05-15 09:02:00,61.9,51.2,29.94,ESE,112,6.9,6.9,68,0.00,OVC,,0.00,119.1,WeatherDisplay:10.37,2013-05-15 07:02:00,
2013-05-15 09:07:00,61.9,50.4,29.94,ESE,112,2.3,2.3,66,0.00,OVC,,0.00,121.9,WeatherDisplay:10.37,2013-05-15 07:07:00,
2013-05-15 09:12:00,62.1,50.6,29.94,SSE,158,4.7,4.7,66,0.00,OVC,,0.00,124.4,WeatherDisplay:10.37,2013-05-15 07:12:00,
2013-05-15 09:17:00,62.2,51.1,29.94,ENE,68,3.5,3.5,67,0.00,OVC,,0.00,127.0,WeatherDisplay:10.37,2013-05-15 07:17:00,
2013-05-15 09:22:00,62.4,50.9,29.94,SW,225,5.8,5.8,66,0.00,OVC,,0.00,129.7,WeatherDisplay:10.37,2013-05-15 07:22:00,
2013-05-15 09:27:00,62.4,50.9,29.94,NW,315,4.6,4.6,66,0.00,OVC,,0.00,132.2,WeatherDisplay:10.37,2013-05-15 07:27:00,
2013-05-15 09:32:00,62.6,50.7,29.91,South,180,3.5,3.5,65,0.00,OVC,,0.00,134.1,WeatherDisplay:10.37,2013-05-15 07:32:00,
2013-05-15 09:37:00,63.0,51.4,29.91,SSE,158,2.3,2.3,66,0.00,OVC,,0.00,137.1,WeatherDisplay:10.37,2013-05-15 07:37:00,
2013-05-15 09:42:00,63.1,51.6,29.91,ENE,68,3.8,3.8,66,0.00,OVC,,0.00,139.6,WeatherDisplay:10.37,2013-05-15 07:42:00,
2013-05-15 09:47:00,63.1,51.2,29.91,SSW,202,2.3,2.3,65,0.00,OVC,,0.00,141.9,WeatherDisplay:10.37,2013-05-15 07:47:00,
2013-05-15 09:52:00,63.3,51.3,29.91,WNW,292,3.5,3.5,65,0.00,OVC,,0.00,144.2,WeatherDisplay:10.37,2013-05-15 07:52:00,
2013-05-15 09:57:00,63.7,51.3,29.91,ESE,112,8.1,8.1,64,0.00,OVC,,0.00,146.5,WeatherDisplay:10.37,2013-05-15 07:57:00,
2013-05-15 10:02:00,63.7,50.8,29.91,ESE,112,5.8,5.8,63,0.00,OVC,,0.00,148.8,WeatherDisplay:10.37,2013-05-15 08:02:00,
2013-05-15 10:07:00,63.9,51.9,29.91,SSW,202,3.5,3.5,65,0.00,OVC,,0.00,151.0,WeatherDisplay:10.37,2013-05-15 08:07:00,
2013-05-15 10:12:00,64.0,52.0,29.91,SSE,158,8.1,8.1,65,0.00,OVC,,0.00,153.3,WeatherDisplay:10.37,2013-05-15 08:12:00,
2013-05-15 10:17:00,64.2,51.4,29.91,SSE,158,5.8,5.8,63,0.00,OVC,,0.00,155.3,WeatherDisplay:10.37,2013-05-15 08:17:00,
2013-05-15 10:22:00,64.4,52.0,29.91,ESE,112,2.3,2.3,64,0.00,OVC,,0.00,157.4,WeatherDisplay:10.37,2013-05-15 08:22:00,
2013-05-15 10:27:00,64.4,52.0,29.91,SSW,202,5.8,5.8,64,0.00,OVC,,0.00,159.4,WeatherDisplay:10.37,2013-05-15 08:27:00,
2013-05-15 10:32:00,64.6,51.3,29.91,ESE,112,5.8,5.8,62,0.00,OVC,,0.00,161.4,WeatherDisplay:10.37,2013-05-15 08:32:00,
2013-05-15 10:37:00,64.8,52.3,29.91,ESE,112,7.1,7.1,64,0.00,OVC,,0.00,163.3,WeatherDisplay:10.37,2013-05-15 08:37:00,
2013-05-15 10:42:00,64.9,52.0,29.91,SSW,202,2.3,2.3,63,0.00,OVC,,0.00,165.2,WeatherDisplay:10.37,2013-05-15 08:42:00,
2013-05-15 10:47:00,64.9,51.6,29.91,SSW,202,2.3,2.3,62,0.00,OVC,,0.00,167.0,WeatherDisplay:10.37,2013-05-15 08:47:00,
2013-05-15 10:52:00,65.1,52.6,29.91,ESE,112,2.3,2.3,64,0.00,OVC,,0.00,168.8,WeatherDisplay:10.37,2013-05-15 08:52:00,
2013-05-15 10:57:00,65.7,52.3,29.91,SW,225,4.6,4.6,62,0.00,OVC,,0.00,170.4,WeatherDisplay:10.37,2013-05-15 08:57:00,
2013-05-15 11:02:00,65.7,52.3,29.91,ESE,112,5.8,5.8,62,0.00,OVC,,0.00,172.1,WeatherDisplay:10.37,2013-05-15 09:02:00,
2013-05-15 11:07:00,65.8,52.5,29.91,ESE,112,4.6,4.6,62,0.00,OVC,,0.00,173.6,WeatherDisplay:10.37,2013-05-15 09:07:00,
2013-05-15 11:12:00,65.7,52.3,29.91,SSW,202,2.3,2.3,62,0.00,OVC,,0.00,175.1,WeatherDisplay:10.37,2013-05-15 09:12:00,
2013-05-15 11:17:00,66.0,52.6,29.91,SSW,202,2.9,3.1,62,0.00,OVC,,0.00,176.6,WeatherDisplay:10.37,2013-05-15 09:17:00,
2013-05-15 11:22:00,66.4,52.1,29.91,SSE,158,6.9,6.9,60,0.00,OVC,,0.00,178.0,WeatherDisplay:10.37,2013-05-15 09:22:00,
2013-05-15 11:27:00,66.6,52.2,29.91,WSW,248,2.9,2.9,60,0.00,OVC,,0.00,179.2,WeatherDisplay:10.37,2013-05-15 09:27:00,
2013-05-15 11:32:00,66.6,52.2,29.88,WSW,248,2.3,2.3,60,0.00,OVC,,0.00,180.5,WeatherDisplay:10.37,2013-05-15 09:32:00,
2013-05-15 11:37:00,66.7,52.9,29.88,SSW,202,2.6,2.6,61,0.00,OVC,,0.00,181.7,WeatherDisplay:10.37,2013-05-15 09:37:00,
2013-05-15 11:42:00,66.7,52.9,29.88,ESE,112,3.6,3.6,61,0.00,OVC,,0.00,182.8,WeatherDisplay:10.37,2013-05-15 09:42:00,
2013-05-15 11:47:00,66.9,52.6,29.88,ESE,112,6.2,6.2,60,0.00,OVC,,0.00,183.8,WeatherDisplay:10.37,2013-05-15 09:47:00,
2013-05-15 11:52:00,66.9,53.0,29.88,ESE,112,5.8,5.8,61,0.00,OVC,,0.00,184.8,WeatherDisplay:10.37,2013-05-15 09:52:00,
2013-05-15 11:57:00,66.7,52.4,29.88,ENE,68,6.4,6.4,60,0.00,OVC,,0.00,185.8,WeatherDisplay:10.37,2013-05-15 09:57:00,
2013-05-15 12:02:00,67.1,52.7,29.88,ESE,112,5.8,5.8,60,0.00,OVC,,0.00,186.6,WeatherDisplay:10.37,2013-05-15 10:02:00,
2013-05-15 12:07:00,67.5,53.1,29.88,ENE,68,2.9,2.9,60,0.00,OVC,,0.00,187.3,WeatherDisplay:10.37,2013-05-15 10:07:00,
2013-05-15 12:12:00,67.5,53.1,29.88,SW,225,4.6,4.6,60,0.00,OVC,,0.00,187.9,WeatherDisplay:10.37,2013-05-15 10:12:00,
2013-05-15 12:17:00,67.6,53.3,29.85,ESE,112,2.3,2.3,60,0.00,OVC,,0.00,188.6,WeatherDisplay:10.37,2013-05-15 10:17:00,
2013-05-15 12:22:00,67.6,52.8,29.85,ESE,112,4.9,4.9,59,0.00,OVC,,0.00,189.1,WeatherDisplay:10.37,2013-05-15 10:22:00,
2013-05-15 12:27:00,67.8,51.5,29.85,ESE,112,8.1,8.1,56,0.00,OVC,,0.00,189.6,WeatherDisplay:10.37,2013-05-15 10:27:00,
2013-05-15 12:32:00,68.0,52.2,29.88,SSW,202,3.5,3.5,57,0.00,OVC,,0.00,190.1,WeatherDisplay:10.37,2013-05-15 10:32:00,
2013-05-15 12:37:00,68.4,52.5,29.88,SSW,202,4.7,4.7,57,0.00,OVC,,0.00,190.4,WeatherDisplay:10.37,2013-05-15 10:37:00,
2013-05-15 12:42:00,68.5,53.2,29.88,SSE,158,4.6,4.6,58,0.00,OVC,,0.00,190.6,WeatherDisplay:10.37,2013-05-15 10:42:00,
2013-05-15 12:47:00,68.5,52.7,29.85,NNW,338,4.6,4.6,57,0.00,OVC,,0.00,190.7,WeatherDisplay:10.37,2013-05-15 10:47:00,
2013-05-15 12:52:00,68.4,53.0,29.85,ENE,68,3.8,3.8,58,0.00,OVC,,0.00,190.9,WeatherDisplay:10.37,2013-05-15 10:52:00,
2013-05-15 12:57:00,68.5,52.7,29.85,SSE,158,6.9,6.9,57,0.00,OVC,,0.00,190.9,WeatherDisplay:10.37,2013-05-15 10:57:00,
2013-05-15 13:02:00,68.5,52.7,29.88,ESE,112,8.1,8.1,57,0.00,OVC,,0.00,190.9,WeatherDisplay:10.37,2013-05-15 11:02:00,
2013-05-15 13:07:00,68.4,52.5,29.88,SSW,202,3.5,3.5,57,0.00,OVC,,0.00,190.7,WeatherDisplay:10.37,2013-05-15 11:07:00,
2013-05-15 13:12:00,68.7,52.9,29.88,ESE,112,8.1,8.1,57,0.00,OVC,,0.00,190.6,WeatherDisplay:10.37,2013-05-15 11:12:00,
2013-05-15 13:17:00,68.9,53.0,29.88,SSW,202,2.3,2.3,57,0.00,OVC,,0.00,190.2,WeatherDisplay:10.37,2013-05-15 11:17:00,
2013-05-15 13:22:00,69.3,53.8,29.88,SSE,158,2.6,2.6,58,0.00,OVC,,0.00,189.9,WeatherDisplay:10.37,2013-05-15 11:22:00,
2013-05-15 13:27:00,69.4,53.5,29.88,East,90,3.5,3.5,57,0.00,OVC,,0.00,189.4,WeatherDisplay:10.37,2013-05-15 11:27:00,
2013-05-15 13:33:00,69.1,52.7,29.88,NNE,22,6.9,6.9,56,0.00,OVC,,0.00,188.9,WeatherDisplay:10.37,2013-05-15 11:33:00,
2013-05-15 13:38:00,68.7,52.4,29.88,ENE,68,3.5,3.5,56,0.00,OVC,,0.00,188.3,WeatherDisplay:10.37,2013-05-15 11:38:00,
2013-05-15 13:44:00,68.5,53.2,29.88,NNW,338,0.0,0.0,58,0.00,OVC,,0.00,187.4,WeatherDisplay:10.37,2013-05-15 11:44:00,
2013-05-15 13:50:00,68.9,53.0,29.88,NNW,338,2.3,2.3,57,0.00,OVC,,0.00,186.6,WeatherDisplay:10.37,2013-05-15 11:50:00,
2013-05-15 13:55:00,69.1,53.2,29.88,WSW,248,4.6,4.6,57,0.00,OVC,,0.00,185.8,WeatherDisplay:10.37,2013-05-15 11:55:00,
2013-05-15 14:00:00,69.3,53.8,29.88,WSW,248,2.3,2.3,58,0.00,OVC,,0.00,184.8,WeatherDisplay:10.37,2013-05-15 12:00:00,
2013-05-15 14:05:00,69.4,52.6,29.88,ENE,68,6.9,6.9,55,0.00,OVC,,0.00,184.0,WeatherDisplay:10.37,2013-05-15 12:05:00,
2013-05-15 14:11:00,69.1,52.2,29.88,SSW,202,8.1,8.1,55,0.00,OVC,,0.00,182.7,WeatherDisplay:10.37,2013-05-15 12:11:00,
2013-05-15 14:16:00,68.7,51.9,29.85,ESE,112,6.9,6.9,55,0.00,OVC,,0.00,181.5,WeatherDisplay:10.37,2013-05-15 12:16:00,
2013-05-15 14:21:00,68.4,52.0,29.85,ENE,68,3.5,3.5,56,0.00,OVC,,0.00,180.3,WeatherDisplay:10.37,2013-05-15 12:21:00,
2013-05-15 14:27:00,68.2,51.9,29.85,ENE,68,6.9,6.9,56,0.00,OVC,,0.00,178.9,WeatherDisplay:10.37,2013-05-15 12:27:00,
2013-05-15 14:32:00,68.0,52.7,29.85,SSW,202,2.3,2.3,58,0.00,OVC,,0.00,177.5,WeatherDisplay:10.37,2013-05-15 12:32:00,
2013-05-15 14:37:00,68.5,53.2,29.85,ESE,112,3.1,3.1,58,0.00,OVC,,0.00,176.1,WeatherDisplay:10.37,2013-05-15 12:37:00,
2013-05-15 14:42:00,69.3,53.4,29.85,ENE,68,3.5,3.5,57,0.00,OVC,,0.00,174.6,WeatherDisplay:10.37,2013-05-15 12:42:00,
2013-05-15 14:47:00,69.6,53.2,29.85,ESE,112,5.8,5.8,56,0.00,OVC,,0.00,173.1,WeatherDisplay:10.37,2013-05-15 12:47:00,
2013-05-15 14:53:00,69.6,53.2,29.85,NNW,338,4.6,4.6,56,0.00,OVC,,0.00,171.1,WeatherDisplay:10.37,2013-05-15 12:53:00,
2013-05-15 14:58:00,69.6,53.2,29.85,ESE,112,3.8,3.8,56,0.00,OVC,,0.00,169.5,WeatherDisplay:10.37,2013-05-15 12:58:00,
2013-05-15 15:03:00,69.6,53.2,29.85,SSW,202,3.5,3.5,56,0.00,OVC,,0.00,167.8,WeatherDisplay:10.37,2013-05-15 13:03:00,
2013-05-15 15:09:00,69.6,53.2,29.85,SSE,158,7.1,7.1,56,0.00,OVC,,0.00,165.7,WeatherDisplay:10.37,2013-05-15 13:09:00,
2013-05-15 15:15:00,69.4,52.1,29.85,SSW,202,5.8,5.8,54,0.00,OVC,,0.00,163.5,WeatherDisplay:10.37,2013-05-15 13:15:00,
2013-05-15 15:20:00,69.4,52.6,29.83,ESE,112,3.5,3.5,55,0.00,OVC,,0.00,161.5,WeatherDisplay:10.37,2013-05-15 13:20:00,
2013-05-15 15:25:00,69.6,52.7,29.83,ENE,68,4.6,4.6,55,0.00,OVC,,0.00,159.6,WeatherDisplay:10.37,2013-05-15 13:25:00,
2013-05-15 15:30:00,69.6,52.2,29.85,ENE,68,5.4,5.4,54,0.00,OVC,,0.00,157.6,WeatherDisplay:10.37,2013-05-15 13:30:00,
2013-05-15 15:36:00,69.4,51.6,29.85,NNE,22,5.8,5.8,53,0.00,OVC,,0.00,155.1,WeatherDisplay:10.37,2013-05-15 13:36:00,
2013-05-15 15:41:00,70.2,52.2,29.85,SSW,202,4.6,4.6,53,0.00,OVC,,0.00,153.0,WeatherDisplay:10.37,2013-05-15 13:41:00,
2013-05-15 15:47:00,72.0,53.4,29.83,SSW,202,2.3,2.3,52,0.00,OVC,,0.00,150.3,WeatherDisplay:10.37,2013-05-15 13:47:00,
2013-05-15 15:52:00,73.0,52.7,29.83,SSW,202,2.3,2.4,49,0.00,OVC,,0.00,148.0,WeatherDisplay:10.37,2013-05-15 13:52:00,
2013-05-15 15:57:00,73.6,53.8,29.83,WNW,292,2.3,2.3,50,0.00,OVC,,0.00,145.7,WeatherDisplay:10.37,2013-05-15 13:57:00,
2013-05-15 16:03:00,73.8,54.0,29.83,NNW,338,3.5,3.5,50,0.00,OVC,,0.00,143.6,WeatherDisplay:10.37,2013-05-15 14:03:00,
2013-05-15 16:08:00,73.6,53.2,29.83,NE,45,2.9,2.9,49,0.00,OVC,,0.00,141.1,WeatherDisplay:10.37,2013-05-15 14:08:00,
2013-05-15 16:13:00,73.0,52.7,29.83,ESE,112,3.5,3.5,49,0.00,OVC,,0.00,138.3,WeatherDisplay:10.37,2013-05-15 14:13:00,
2013-05-15 16:19:00,72.7,52.4,29.80,SSE,158,5.8,5.8,49,0.00,OVC,,0.00,135.3,WeatherDisplay:10.37,2013-05-15 14:19:00,
2013-05-15 16:24:00,72.7,53.0,29.80,SSW,202,6.9,6.9,50,0.00,OVC,,0.00,132.8,WeatherDisplay:10.37,2013-05-15 14:24:00,
2013-05-15 16:29:00,73.0,51.6,29.80,ESE,112,8.1,8.1,47,0.00,OVC,,0.00,130.3,WeatherDisplay:10.37,2013-05-15 14:29:00,
2013-05-15 16:34:00,73.0,52.7,29.83,ESE,112,6.0,6.0,49,0.00,OVC,,0.00,127.7,WeatherDisplay:10.37,2013-05-15 14:34:00,
2013-05-15 16:39:00,72.5,52.2,29.83,SSW,202,7.4,7.4,49,0.00,OVC,,0.00,125.2,WeatherDisplay:10.37,2013-05-15 14:39:00,
2013-05-15 16:44:00,72.9,52.6,29.83,WSW,248,2.3,2.3,49,0.00,OVC,,0.00,122.6,WeatherDisplay:10.37,2013-05-15 14:44:00,
2013-05-15 16:49:00,73.2,52.3,29.85,SSW,202,5.8,5.8,48,0.00,OVC,,0.00,120.0,WeatherDisplay:10.37,2013-05-15 14:49:00,
2013-05-15 16:54:00,73.2,51.2,29.85,ENE,68,8.1,8.1,46,0.00,OVC,,0.00,117.3,WeatherDisplay:10.37,2013-05-15 14:54:00,
2013-05-15 17:01:00,73.6,52.7,29.83,WSW,248,2.3,2.3,48,0.00,OVC,,0.00,113.5,WeatherDisplay:10.37,2013-05-15 15:01:00,
2013-05-15 17:07:00,73.8,52.3,29.83,SE,135,4.3,4.3,47,0.00,OVC,,0.00,110.2,WeatherDisplay:10.37,2013-05-15 15:07:00,
2013-05-15 17:12:00,73.9,52.4,29.83,SSE,158,4.0,4.0,47,0.00,OVC,,0.00,107.6,WeatherDisplay:10.37,2013-05-15 15:12:00,
2013-05-15 17:17:00,73.9,51.8,29.83,WSW,248,4.6,4.6,46,0.00,OVC,,0.00,104.8,WeatherDisplay:10.37,2013-05-15 15:17:00,
2013-05-15 17:22:00,73.9,52.4,29.83,WSW,248,5.8,5.8,47,0.00,OVC,,0.00,102.0,WeatherDisplay:10.37,2013-05-15 15:22:00,
2013-05-15 17:27:00,73.2,51.8,29.83,ESE,112,3.5,3.5,47,0.00,OVC,,0.00,99.2,WeatherDisplay:10.37,2013-05-15 15:27:00,
2013-05-15 17:32:00,72.5,51.1,29.83,SSW,202,4.6,4.6,47,0.00,OVC,,0.00,96.4,WeatherDisplay:10.37,2013-05-15 15:32:00,
2013-05-15 17:37:00,71.8,51.0,29.83,ESE,112,4.6,0.0,48,0.00,OVC,,0.00,93.6,WeatherDisplay:10.37,2013-05-15 15:37:00,
2013-05-15 17:43:00,71.2,51.1,29.83,SW,225,2.4,2.4,49,0.00,OVC,,0.00,90.3,WeatherDisplay:10.37,2013-05-15 15:43:00,
2013-05-15 17:48:00,70.5,50.4,29.83,South,180,3.5,3.5,49,0.00,OVC,,0.00,87.5,WeatherDisplay:10.37,2013-05-15 15:48:00,
2013-05-15 17:53:00,70.0,49.9,29.83,SSE,158,4.9,4.9,49,0.00,OVC,,0.00,84.6,WeatherDisplay:10.37,2013-05-15 15:53:00,
2013-05-15 17:58:00,69.4,50.0,29.83,NNW,338,3.5,3.5,50,0.00,OVC,,0.00,81.8,WeatherDisplay:10.37,2013-05-15 15:58:00,
2013-05-15 18:04:00,69.1,49.7,29.83,ESE,112,4.6,4.6,50,0.00,OVC,,0.00,78.4,WeatherDisplay:10.37,2013-05-15 16:04:00,
2013-05-15 18:09:00,68.7,49.9,29.83,SSW,202,2.4,2.4,51,0.00,OVC,,0.00,75.6,WeatherDisplay:10.37,2013-05-15 16:09:00,
2013-05-15 18:14:00,68.5,49.2,29.83,WSW,248,5.8,5.8,50,0.00,OVC,,0.00,72.8,WeatherDisplay:10.37,2013-05-15 16:14:00,
2013-05-15 18:19:00,68.4,49.5,29.83,WSW,248,4.3,4.3,51,0.00,OVC,,0.00,70.0,WeatherDisplay:10.37,2013-05-15 16:19:00,
2013-05-15 18:24:00,68.2,49.4,29.83,NNE,22,4.6,4.6,51,0.00,OVC,,0.00,67.2,WeatherDisplay:10.37,2013-05-15 16:24:00,
2013-05-15 18:29:00,68.2,49.9,29.83,ESE,112,4.6,4.6,52,0.00,OVC,,0.00,64.3,WeatherDisplay:10.37,2013-05-15 16:29:00,
2013-05-15 18:35:00,68.0,49.2,29.83,SSE,158,3.5,3.5,51,0.00,OVC,,0.00,60.9,WeatherDisplay:10.37,2013-05-15 16:35:00,
2013-05-15 18:40:00,67.8,49.5,29.83,SSW,202,2.3,2.3,52,0.00,OVC,,0.00,58.1,WeatherDisplay:10.37,2013-05-15 16:40:00,
2013-05-15 18:45:00,67.6,49.9,29.83,NNW,338,2.3,2.3,53,0.00,OVC,,0.00,55.3,WeatherDisplay:10.37,2013-05-15 16:45:00,
2013-05-15 18:50:00,67.5,49.7,29.85,SSW,202,3.5,3.5,53,0.00,OVC,,0.00,52.6,WeatherDisplay:10.37,2013-05-15 16:50:00,
2013-05-15 18:55:00,67.1,49.9,29.85,SSE,158,2.4,2.4,54,0.00,OVC,,0.00,49.8,WeatherDisplay:10.37,2013-05-15 16:55:00,
2013-05-15 19:00:00,67.1,49.9,29.85,SSW,202,4.6,4.6,54,0.00,OVC,,0.00,47.2,WeatherDisplay:10.37,2013-05-15 17:00:00,
2013-05-15 19:05:00,66.7,49.6,29.83,SSW,202,3.5,3.5,54,0.00,OVC,,0.00,44.4,WeatherDisplay:10.37,2013-05-15 17:05:00,
2013-05-15 19:10:00,66.6,49.9,29.83,SSW,202,1.6,0.0,55,0.00,OVC,,0.00,41.7,WeatherDisplay:10.37,2013-05-15 17:10:00,
2013-05-15 19:15:00,66.2,49.6,29.80,WSW,248,2.3,2.3,55,0.00,OVC,,0.00,38.9,WeatherDisplay:10.37,2013-05-15 17:15:00,
2013-05-15 19:21:00,65.8,49.2,29.80,WSW,248,2.3,2.3,55,0.00,OVC,,0.00,36.3,WeatherDisplay:10.37,2013-05-15 17:21:00,
2013-05-15 19:26:00,65.7,49.0,29.80,NNW,338,2.3,2.3,55,0.00,OVC,,0.00,33.7,WeatherDisplay:10.37,2013-05-15 17:26:00,
2013-05-15 19:32:00,65.5,49.4,29.83,SSW,202,1.2,1.2,56,0.00,OVC,,0.00,30.0,WeatherDisplay:10.37,2013-05-15 17:32:00,
2013-05-15 19:37:00,65.1,49.0,29.83,NNW,338,2.3,2.3,56,0.00,OVC,,0.00,27.4,WeatherDisplay:10.37,2013-05-15 17:37:00,
2013-05-15 19:43:00,64.8,49.2,29.83,SSW,202,1.2,0.0,57,0.00,OVC,,0.00,24.4,WeatherDisplay:10.37,2013-05-15 17:43:00,
2013-05-15 19:48:00,64.4,48.8,29.83,SSW,202,2.3,2.3,57,0.00,OVC,,0.00,21.9,WeatherDisplay:10.37,2013-05-15 17:48:00,
2013-05-15 19:54:00,64.2,49.1,29.83,WNW,292,3.1,3.1,58,0.00,OVC,,0.00,18.8,WeatherDisplay:10.37,2013-05-15 17:54:00,
2013-05-15 19:59:00,63.9,49.2,29.83,SSE,158,1.2,0.0,59,0.00,OVC,,0.00,16.5,WeatherDisplay:10.37,2013-05-15 17:59:00,
2013-05-15 20:04:00,63.5,48.9,29.85,WSW,248,1.4,0.0,59,0.00,OVC,,0.00,14.0,WeatherDisplay:10.37,2013-05-15 18:04:00,
2013-05-15 20:09:00,63.1,48.6,29.85,WNW,292,0.0,0.9,59,0.00,OVC,,0.00,11.6,WeatherDisplay:10.37,2013-05-15 18:09:00,
2013-05-15 20:14:00,63.0,48.9,29.85,West,270,1.2,0.0,60,0.00,OVC,,0.00,9.2,WeatherDisplay:10.37,2013-05-15 18:14:00,
2013-05-15 20:20:00,62.4,48.8,29.83,SSE,158,1.2,0.0,61,0.00,OVC,,0.00,6.4,WeatherDisplay:10.37,2013-05-15 18:20:00,
2013-05-15 20:25:00,62.2,48.6,29.83,NNW,338,0.0,0.0,61,0.00,OVC,,0.00,4.1,WeatherDisplay:10.37,2013-05-15 18:25:00,
2013-05-15 20:30:00,61.9,48.7,29.83,SSW,202,2.3,2.3,62,0.00,OVC,,0.00,1.8,WeatherDisplay:10.37,2013-05-15 18:30:00,
2013-05-15 20:35:00,61.5,48.8,29.83,ESE,112,2.3,2.3,63,0.00,OVC,,0.00,0.5,WeatherDisplay:10.37,2013-05-15 18:35:00,
2013-05-15 20:40:00,61.2,48.5,29.83,SW,225,3.5,0.0,63,0.00,OVC,,0.00,0.5,WeatherDisplay:10.37,2013-05-15 18:40:00,
2013-05-15 20:45:00,60.8,48.5,29.88,WNW,292,0.0,0.0,64,0.00,CLR,,0.00,0.0,WeatherDisplay:10.37,2013-05-15 18:45:00,
2013-05-15 20:51:00,60.6,48.8,29.88,NNE,22,0.0,0.0,65,0.00,CLR,,0.00,0.0,WeatherDisplay:10.37,2013-05-15 18:51:00,
2013-05-15 20:56:00,60.3,48.4,29.88,SW,225,1.2,0.0,65,0.00,CLR,,0.00,0.0,WeatherDisplay:10.37,2013-05-15 18:56:00,
2013-05-15 21:02:00,60.1,48.3,29.88,ENE,68,0.0,0.0,65,0.00,CLR,,0.00,0.0,WeatherDisplay:10.37,2013-05-15 19:02:00,
2013-05-15 21:07:00,59.7,48.3,29.88,SSW,202,0.0,0.0,66,0.00,CLR,,0.00,0.0,WeatherDisplay:10.37,2013-05-15 19:07:00,
2013-05-15 21:12:00,59.5,48.2,29.88,SSW,202,0.0,0.0,66,0.00,CLR,,0.00,0.0,WeatherDisplay:10.37,2013-05-15 19:12:00,
2013-05-15 21:17:00,59.2,48.2,29.83,SW,225,0.0,0.0,67,0.00,CLR,,0.00,0.0,WeatherDisplay:10.37,2013-05-15 19:17:00,
2013-05-15 21:22:00,59.0,48.1,29.83,SSW,202,0.0,0.0,67,0.00,CLR,,0.00,0.0,WeatherDisplay:10.37,2013-05-15 19:22:00,
2013-05-15 21:28:00,58.6,48.1,29.83,SSW,202,0.0,0.0,68,0.00,CLR,,0.00,0.0,WeatherDisplay:10.37,2013-05-15 19:28:00,
2013-05-15 21:33:00,58.3,48.2,29.85,SSW,202,0.0,0.0,69,0.00,CLR,,0.00,0.0,WeatherDisplay:10.37,2013-05-15 19:33:00,
2013-05-15 21:39:00,58.1,48.0,29.85,SSW,202,0.0,0.0,69,0.00,CLR,,0.00,0.0,WeatherDisplay:10.37,2013-05-15 19:39:00,
2013-05-15 21:44:00,57.7,47.6,29.85,SSW,202,0.0,0.0,69,0.00,CLR,,0.00,0.0,WeatherDisplay:10.37,2013-05-15 19:44:00,
2013-05-15 21:49:00,57.6,47.8,29.83,SSW,202,0.0,0.0,70,0.00,CLR,,0.00,0.0,WeatherDisplay:10.37,2013-05-15 19:49:00,
2013-05-15 21:55:00,57.4,47.7,29.83,ENE,68,0.0,0.0,70,0.00,CLR,,0.00,0.0,WeatherDisplay:10.37,2013-05-15 19:55:00,
2013-05-15 22:00:00,57.0,47.7,29.83,WSW,248,0.0,0.0,71,0.00,CLR,,0.00,0.0,WeatherDisplay:10.37,2013-05-15 20:00:00,
2013-05-15 22:05:00,56.8,47.5,29.85,West,270,0.0,0.0,71,0.00,CLR,,0.00,0.0,WeatherDisplay:10.37,2013-05-15 20:05:00,
2013-05-15 22:11:00,56.7,47.7,29.85,SSW,202,0.0,0.0,72,0.00,CLR,,0.00,0.0,WeatherDisplay:10.37,2013-05-15 20:11:00,
2013-05-15 22:16:00,56.5,47.6,29.83,NNW,338,0.0,0.0,72,0.00,CLR,,0.00,0.0,WeatherDisplay:10.37,2013-05-15 20:16:00,
2013-05-15 22:22:00,56.3,47.4,29.83,NNW,338,0.0,0.0,72,0.00,CLR,,0.00,0.0,WeatherDisplay:10.37,2013-05-15 20:22:00,
2013-05-15 22:27:00,56.1,47.6,29.83,WSW,248,0.0,0.0,73,0.00,CLR,,0.00,0.0,WeatherDisplay:10.37,2013-05-15 20:27:00,
2013-05-15 22:32:00,55.9,47.4,29.83,East,90,0.0,0.0,73,0.00,CLR,,0.00,0.0,WeatherDisplay:10.37,2013-05-15 20:32:00,
2013-05-15 22:38:00,55.9,47.4,29.83,SE,135,0.0,0.0,73,0.00,CLR,,0.00,0.0,WeatherDisplay:10.37,2013-05-15 20:38:00,
2013-05-15 22:44:00,55.8,47.2,29.83,ESE,112,2.2,0.0,73,0.00,CLR,,0.00,0.0,WeatherDisplay:10.37,2013-05-15 20:44:00,
2013-05-15 22:49:00,55.8,47.2,29.85,ENE,68,0.0,0.0,73,0.00,CLR,,0.00,0.0,WeatherDisplay:10.37,2013-05-15 20:49:00,
2013-05-15 22:54:00,55.6,47.1,29.85,NE,45,0.0,0.0,73,0.00,CLR,,0.00,0.0,WeatherDisplay:10.37,2013-05-15 20:54:00,
2013-05-15 22:59:00,55.4,47.2,29.85,SSE,158,1.4,0.0,74,0.00,CLR,,0.00,0.0,WeatherDisplay:10.37,2013-05-15 20:59:00,
2013-05-15 23:05:00,55.4,47.2,29.83,NW,315,1.2,0.0,74,0.00,CLR,,0.00,0.0,WeatherDisplay:10.37,2013-05-15 21:05:00,
2013-05-15 23:10:00,55.4,47.6,29.83,SSE,158,1.4,1.4,75,0.00,CLR,,0.00,0.0,WeatherDisplay:10.37,2013-05-15 21:10:00,
2013-05-15 23:16:00,55.6,47.8,29.85,SW,225,1.2,0.0,75,0.00,CLR,,0.00,0.0,WeatherDisplay:10.37,2013-05-15 21:16:00,
2013-05-15 23:21:00,55.6,47.8,29.85,SSE,158,2.2,0.0,75,0.00,CLR,,0.00,0.0,WeatherDisplay:10.37,2013-05-15 21:21:00,
2013-05-15 23:26:00,55.6,47.8,29.85,SSE,158,0.0,0.0,75,0.00,CLR,,0.00,0.0,WeatherDisplay:10.37,2013-05-15 21:26:00,
2013-05-15 23:32:00,55.6,47.8,29.83,ESE,112,1.2,0.0,75,0.00,CLR,,0.00,0.0,WeatherDisplay:10.37,2013-05-15 21:32:00,
2013-05-15 23:37:00,55.6,47.8,29.83,SSW,202,2.3,2.3,75,0.00,CLR,,0.00,0.0,WeatherDisplay:10.37,2013-05-15 21:37:00,
2013-05-15 23:42:00,55.4,48.0,29.83,SW,225,1.2,0.0,76,0.00,CLR,,0.00,0.0,WeatherDisplay:10.37,2013-05-15 21:42:00,
2013-05-15 23:47:00,55.4,48.0,29.85,NNW,338,0.0,0.0,76,0.00,CLR,,0.00,0.0,WeatherDisplay:10.37,2013-05-15 21:47:00,
2013-05-15 23:52:00,55.4,48.3,29.85,SSE,158,2.2,0.0,77,0.00,CLR,,0.00,0.0,WeatherDisplay:10.37,2013-05-15 21:52:00,
2013-05-15 23:57:00,55.2,48.1,29.85,WNW,292,1.2,1.2,77,0.00,CLR,,0.00,0.0,WeatherDisplay:10.37,2013-05-15 21:57:00,